createdAt,value
2022-12-23T00:01:50.207Z,11.60
2022-12-23T00:04:17.072Z,11.60
2022-12-23T00:06:43.718Z,11.60
2022-12-23T00:09:10.301Z,11.60
2022-12-23T00:11:36.899Z,11.60
2022-12-23T00:14:22.291Z,11.60
2022-12-23T00:16:50.325Z,11.60
2022-12-23T00:19:17.164Z,11.60
2022-12-23T00:21:43.746Z,11.60
2022-12-23T00:24:12.022Z,11.60
2022-12-23T00:26:38.851Z,11.60
2022-12-23T00:29:05.507Z,11.60
2022-12-23T00:31:32.354Z,11.70
2022-12-23T00:33:59.079Z,11.60
2022-12-23T00:36:28.492Z,11.60
2022-12-23T00:39:15.304Z,11.50
2022-12-23T00:42:00.719Z,11.50
2022-12-23T00:44:27.533Z,11.50
2022-12-23T00:46:54.285Z,11.50
2022-12-23T00:49:40.187Z,11.50
2022-12-23T00:52:09.206Z,11.50
2022-12-23T00:54:36.211Z,11.50
2022-12-23T00:57:03.579Z,11.50
2022-12-23T00:59:30.343Z,11.50
2022-12-23T01:02:15.894Z,11.50
2022-12-23T01:05:01.045Z,11.50
2022-12-23T01:07:27.888Z,11.50
2022-12-23T01:09:54.510Z,11.40
2022-12-23T01:12:21.378Z,11.50
2022-12-23T01:14:48.535Z,11.50
2022-12-23T01:17:15.181Z,11.50
2022-12-23T01:19:42.115Z,11.50
2022-12-23T01:22:08.815Z,11.50
2022-12-23T01:24:35.546Z,11.50
2022-12-23T01:27:02.178Z,11.40
2022-12-23T01:29:29.812Z,11.40
2022-12-23T01:31:56.512Z,11.50
2022-12-23T01:34:23.228Z,11.40
2022-12-23T01:36:49.837Z,11.40
2022-12-23T01:39:16.473Z,11.40
2022-12-23T01:42:01.857Z,11.50
2022-12-23T01:45:04.485Z,11.50
2022-12-23T01:47:44.387Z,11.40
2022-12-23T01:50:59.273Z,11.40
2022-12-23T01:53:30.738Z,11.40
2022-12-23T01:56:01.741Z,11.30
2022-12-23T01:58:34.122Z,11.30
2022-12-23T02:01:20.360Z,11.30
2022-12-23T02:03:50.049Z,11.20
2022-12-23T02:06:53.396Z,11.30
2022-12-23T02:09:21.877Z,11.30
2022-12-23T02:12:18.036Z,11.30
2022-12-23T02:15:18.425Z,11.30
2022-12-23T02:18:02.760Z,11.30
2022-12-23T02:21:07.261Z,11.30
2022-12-23T02:23:48.964Z,11.30
2022-12-23T02:26:34.069Z,11.30
2022-12-23T02:29:07.050Z,11.30
2022-12-23T02:31:55.655Z,11.30
2022-12-23T02:34:31.485Z,11.30
2022-12-23T02:37:28.411Z,11.40
2022-12-23T02:40:07.133Z,11.40
2022-12-23T02:43:09.214Z,11.40
2022-12-23T02:45:39.052Z,11.30
2022-12-23T02:48:30.956Z,11.30
2022-12-23T02:50:58.380Z,11.40
2022-12-23T02:53:30.521Z,11.40
2022-12-23T02:55:59.424Z,11.30
2022-12-23T02:58:32.160Z,11.30
2022-12-23T03:01:00.718Z,11.30
2022-12-23T03:03:28.247Z,11.30
2022-12-23T03:05:55.134Z,11.30
2022-12-23T03:08:36.550Z,11.30
2022-12-23T03:11:13.237Z,11.20
2022-12-23T03:14:19.320Z,11.10
2022-12-23T03:16:56.038Z,11.10
2022-12-23T03:19:58.101Z,11.20
2022-12-23T03:22:32.417Z,11.20
2022-12-23T03:25:11.597Z,11.20
2022-12-23T03:27:49.296Z,11.20
2022-12-23T03:30:19.517Z,11.20
2022-12-23T03:32:56.327Z,11.20
2022-12-23T03:35:28.419Z,11.20
2022-12-23T03:37:57.488Z,11.20
2022-12-23T03:40:29.682Z,11.20
2022-12-23T03:43:13.190Z,11.30
2022-12-23T03:45:46.932Z,11.30
2022-12-23T03:48:23.206Z,11.30
2022-12-23T03:50:55.776Z,11.30
2022-12-23T03:53:43.510Z,11.30
2022-12-23T03:56:16.858Z,11.30
2022-12-23T03:59:02.806Z,11.30
2022-12-23T04:01:43.136Z,11.30
2022-12-23T04:04:37.945Z,11.30
2022-12-23T04:07:17.268Z,11.30
2022-12-23T04:09:44.888Z,11.20
2022-12-23T04:12:13.788Z,11.10
2022-12-23T04:14:46.918Z,11.10
2022-12-23T04:17:13.929Z,11.20
2022-12-23T04:19:41.018Z,11.20
2022-12-23T04:22:07.698Z,11.10
2022-12-23T04:24:34.271Z,11.20
2022-12-23T04:27:00.841Z,11.20
2022-12-23T04:29:27.408Z,11.30
2022-12-23T04:31:54.072Z,11.20
2022-12-23T04:34:20.743Z,11.30
2022-12-23T04:36:47.490Z,11.30
2022-12-23T04:39:14.217Z,11.10
2022-12-23T04:41:40.854Z,11.10
2022-12-23T04:44:07.724Z,11.10
2022-12-23T04:46:34.413Z,11.10
2022-12-23T04:49:01.030Z,11.10
2022-12-23T04:51:27.625Z,11.20
2022-12-23T04:53:54.262Z,11.20
2022-12-23T04:56:20.921Z,11.10
2022-12-23T04:58:47.567Z,11.10
2022-12-23T05:01:14.362Z,11.00
2022-12-23T05:03:41.177Z,11.10
2022-12-23T05:06:08.623Z,11.10
2022-12-23T05:08:35.821Z,11.20
2022-12-23T05:11:02.434Z,11.20
2022-12-23T05:13:29.093Z,11.10
2022-12-23T05:15:56.033Z,11.20
2022-12-23T05:18:22.973Z,11.10
2022-12-23T05:20:49.736Z,11.10
2022-12-23T05:23:16.328Z,11.20
2022-12-23T05:25:42.961Z,11.20
2022-12-23T05:28:09.567Z,11.10
2022-12-23T05:30:36.419Z,11.10
2022-12-23T05:33:03.130Z,11.10
2022-12-23T05:35:29.783Z,11.10
2022-12-23T05:37:57.589Z,11.00
2022-12-23T05:40:28.544Z,11.00
2022-12-23T05:42:58.963Z,10.90
2022-12-23T05:45:25.762Z,10.80
2022-12-23T05:47:52.476Z,10.70
2022-12-23T05:50:19.070Z,10.70
2022-12-23T05:52:45.633Z,10.70
2022-12-23T05:55:12.319Z,10.80
2022-12-23T05:57:38.928Z,10.80
2022-12-23T06:00:06.142Z,10.80
2022-12-23T06:02:32.950Z,10.90
2022-12-23T06:04:59.764Z,10.80
2022-12-23T06:07:26.427Z,10.90
2022-12-23T06:09:53.039Z,10.90
2022-12-23T06:12:19.699Z,10.90
2022-12-23T06:14:46.627Z,11.00
2022-12-23T06:17:13.360Z,10.90
2022-12-23T06:19:40.003Z,11.00
2022-12-23T06:22:06.650Z,11.00
2022-12-23T06:24:33.310Z,11.00
2022-12-23T06:26:59.933Z,11.00
2022-12-23T06:29:26.513Z,11.00
2022-12-23T06:31:53.219Z,11.00
2022-12-23T06:34:19.937Z,11.00
2022-12-23T06:36:46.549Z,11.00
2022-12-23T06:39:13.215Z,11.00
2022-12-23T06:41:40.165Z,11.00
2022-12-23T06:44:07.213Z,11.00
2022-12-23T06:46:33.869Z,11.00
2022-12-23T06:49:00.436Z,11.00
2022-12-23T06:51:27.150Z,11.00
2022-12-23T06:53:53.876Z,11.00
2022-12-23T06:56:20.802Z,11.00
2022-12-23T06:58:47.546Z,11.00
2022-12-23T07:01:14.312Z,11.00
2022-12-23T07:03:41.048Z,11.00
2022-12-23T07:06:08.021Z,11.10
2022-12-23T07:08:34.610Z,11.00
2022-12-23T07:11:03.371Z,11.00
2022-12-23T07:13:31.056Z,11.00
2022-12-23T07:15:57.647Z,11.00
2022-12-23T07:18:25.250Z,11.00
2022-12-23T07:20:52.586Z,11.00
2022-12-23T07:23:19.780Z,11.00
2022-12-23T07:25:46.380Z,11.00
2022-12-23T07:28:13.056Z,11.00
2022-12-23T07:30:39.666Z,11.00
2022-12-23T07:33:06.283Z,11.00
2022-12-23T07:35:33.005Z,11.10
2022-12-23T07:37:59.643Z,11.00
2022-12-23T07:40:26.983Z,11.10
2022-12-23T07:42:58.378Z,11.00
2022-12-23T07:45:26.479Z,11.10
2022-12-23T07:47:54.547Z,11.00
2022-12-23T07:50:21.730Z,11.10
2022-12-23T07:52:48.469Z,11.10
2022-12-23T07:55:15.461Z,11.10
2022-12-23T07:57:42.098Z,11.10
2022-12-23T08:00:11.345Z,11.10
2022-12-23T08:02:38.187Z,11.10
2022-12-23T08:05:05.492Z,11.10
2022-12-23T08:07:32.172Z,11.10
2022-12-23T08:09:58.808Z,11.00
2022-12-23T08:12:25.652Z,11.00
2022-12-23T08:14:52.882Z,11.10
2022-12-23T08:17:26.521Z,11.10
2022-12-23T08:19:53.115Z,11.10
2022-12-23T08:22:20.130Z,11.10
2022-12-23T08:24:46.762Z,11.00
2022-12-23T08:27:13.650Z,11.00
2022-12-23T08:29:40.777Z,11.00
2022-12-23T08:32:07.798Z,11.00
2022-12-23T08:34:35.003Z,11.00
2022-12-23T08:37:02.025Z,11.00
2022-12-23T08:39:28.915Z,11.00
2022-12-23T08:41:56.071Z,11.00
2022-12-23T08:44:22.834Z,11.10
2022-12-23T08:46:49.573Z,11.10
2022-12-23T08:49:16.236Z,11.10
2022-12-23T08:51:42.867Z,11.10
2022-12-23T08:54:10.197Z,11.10
2022-12-23T08:56:40.909Z,11.00
2022-12-23T08:59:19.024Z,11.10
2022-12-23T09:01:47.607Z,11.10
2022-12-23T09:04:14.527Z,11.00
2022-12-23T09:06:42.525Z,11.00
2022-12-23T09:09:10.862Z,11.00
2022-12-23T09:11:37.908Z,11.10
2022-12-23T09:14:06.941Z,11.10
2022-12-23T09:16:33.759Z,11.10
2022-12-23T09:19:00.419Z,11.00
2022-12-23T09:21:27.239Z,11.00
2022-12-23T09:23:54.031Z,11.00
2022-12-23T09:26:26.802Z,11.10
2022-12-23T09:28:54.092Z,11.00
2022-12-23T09:31:22.153Z,11.10
2022-12-23T09:33:50.995Z,11.00
2022-12-23T09:36:17.969Z,11.00
2022-12-23T09:38:44.856Z,11.10
2022-12-23T09:41:30.300Z,11.10
2022-12-23T09:44:06.083Z,11.10
2022-12-23T09:46:35.143Z,11.10
2022-12-23T09:49:11.106Z,11.10
2022-12-23T09:51:38.319Z,11.10
2022-12-23T09:54:28.852Z,11.10
2022-12-23T09:57:20.645Z,11.20
2022-12-23T10:00:12.224Z,11.20
2022-12-23T10:02:56.807Z,11.20
2022-12-23T10:05:23.584Z,11.20
2022-12-23T10:07:59.102Z,11.20
2022-12-23T10:10:42.393Z,11.20
2022-12-23T10:13:27.840Z,11.20
2022-12-23T10:15:57.887Z,11.20
2022-12-23T10:18:35.584Z,11.20
2022-12-23T10:21:10.547Z,11.20
2022-12-23T10:23:39.822Z,11.30
2022-12-23T10:26:17.590Z,11.30
2022-12-23T10:28:44.181Z,11.30
2022-12-23T10:31:39.327Z,11.30
2022-12-23T10:34:19.617Z,11.20
2022-12-23T10:37:00.766Z,11.20
2022-12-23T10:39:35.617Z,11.10
2022-12-23T10:42:13.701Z,11.20
2022-12-23T10:44:59.066Z,11.30
2022-12-23T10:47:58.113Z,11.30
2022-12-23T10:50:49.989Z,11.30
2022-12-23T10:53:48.361Z,11.30
2022-12-23T10:56:15.504Z,11.30
2022-12-23T10:58:45.898Z,11.30
2022-12-23T11:01:26.189Z,11.30
2022-12-23T11:03:56.371Z,11.30
2022-12-23T11:06:25.326Z,11.40
2022-12-23T11:08:53.223Z,11.40
2022-12-23T11:11:19.876Z,11.40
2022-12-23T11:13:47.556Z,11.50
2022-12-23T11:16:25.308Z,11.40
2022-12-23T11:19:01.877Z,11.40
2022-12-23T11:21:30.084Z,11.40
2022-12-23T11:24:27.432Z,11.40
2022-12-23T11:27:06.065Z,11.40
2022-12-23T11:29:38.735Z,11.30
2022-12-23T11:32:25.325Z,11.30
2022-12-23T11:34:53.828Z,11.30
2022-12-23T11:37:36.775Z,11.40
2022-12-23T11:40:24.612Z,11.40
2022-12-23T11:42:57.088Z,11.30
2022-12-23T11:45:27.245Z,11.30
2022-12-23T11:47:54.358Z,11.30
2022-12-23T11:50:21.350Z,11.40
2022-12-23T11:52:55.441Z,11.40
2022-12-23T11:55:29.736Z,11.30
2022-12-23T11:57:56.775Z,11.30
2022-12-23T12:00:55.289Z,11.30
2022-12-23T12:03:28.072Z,11.30
2022-12-23T12:05:59.142Z,11.30
2022-12-23T12:08:33.030Z,11.40
2022-12-23T12:11:16.932Z,11.30
2022-12-23T12:13:49.033Z,11.30
2022-12-23T12:16:40.839Z,11.30
2022-12-23T12:19:31.258Z,11.30
2022-12-23T12:22:05.862Z,11.30
2022-12-23T12:24:41.282Z,11.30
2022-12-23T12:27:10.317Z,11.40
2022-12-23T12:29:55.645Z,11.40
2022-12-23T12:32:46.921Z,11.40
2022-12-23T12:35:21.647Z,11.40
2022-12-23T12:37:51.475Z,11.40
2022-12-23T12:40:49.508Z,11.40
2022-12-23T12:43:39.699Z,11.40
2022-12-23T12:46:06.500Z,11.30
2022-12-23T12:48:50.715Z,11.30
2022-12-23T12:51:37.085Z,11.30
2022-12-23T12:54:14.567Z,11.30
2022-12-23T12:56:47.294Z,11.30
2022-12-23T12:59:26.107Z,11.30
2022-12-23T13:02:29.257Z,11.20
2022-12-23T13:05:11.264Z,11.20
2022-12-23T13:07:43.598Z,11.30
2022-12-23T13:10:21.817Z,11.30
2022-12-23T13:12:59.522Z,11.30
2022-12-23T13:15:32.140Z,11.20
2022-12-23T13:18:29.095Z,11.30
2022-12-23T13:21:03.878Z,11.30
2022-12-23T13:23:45.630Z,11.20
2022-12-23T13:26:23.320Z,11.20
2022-12-23T13:29:04.980Z,11.20
2022-12-23T13:31:52.529Z,11.20
2022-12-23T13:34:33.807Z,11.20
2022-12-23T13:37:26.377Z,11.20
2022-12-23T13:40:08.164Z,11.10
2022-12-23T13:42:41.893Z,11.00
2022-12-23T13:45:17.383Z,11.20
2022-12-23T13:48:15.242Z,11.30
2022-12-23T13:50:53.794Z,11.30
2022-12-23T13:53:47.796Z,11.30
2022-12-23T13:56:22.325Z,11.30
2022-12-23T13:58:50.552Z,11.20
2022-12-23T14:01:17.750Z,11.10
2022-12-23T14:03:47.436Z,11.00
2022-12-23T14:06:23.799Z,11.00
2022-12-23T14:08:52.731Z,11.10
2022-12-23T14:11:24.870Z,11.20
2022-12-23T14:13:51.457Z,11.10
2022-12-23T14:16:34.249Z,11.10
2022-12-23T14:19:31.069Z,11.10
2022-12-23T14:22:28.256Z,11.10
2022-12-23T14:25:16.381Z,11.20
2022-12-23T14:28:01.585Z,11.20
2022-12-23T14:30:38.723Z,11.10
2022-12-23T14:33:26.483Z,11.10
2022-12-23T14:35:57.282Z,11.20
2022-12-23T14:38:29.855Z,11.10
2022-12-23T14:41:15.117Z,11.00
2022-12-23T14:43:44.773Z,11.10
2022-12-23T14:46:35.523Z,11.10
2022-12-23T14:49:37.068Z,11.20
2022-12-23T14:51:50.832Z,11.10
2022-12-23T14:54:36.375Z,11.10
2022-12-23T14:57:13.551Z,11.20
2022-12-23T15:00:01.924Z,11.20
2022-12-23T15:02:36.231Z,11.20
2022-12-23T15:05:04.297Z,11.30
2022-12-23T15:07:41.501Z,11.30
2022-12-23T15:10:18.158Z,11.20
2022-12-23T15:12:49.024Z,11.20
2022-12-23T15:15:20.149Z,11.30
2022-12-23T15:17:47.900Z,11.30
2022-12-23T15:20:19.735Z,11.30
2022-12-23T15:22:47.713Z,11.10
2022-12-23T15:25:33.738Z,11.10
2022-12-23T15:28:03.033Z,11.10
2022-12-23T15:30:34.844Z,11.10
2022-12-23T15:33:16.117Z,11.10
2022-12-23T15:35:52.880Z,11.10
2022-12-23T15:38:21.162Z,10.90
2022-12-23T15:41:03.519Z,11.10
2022-12-23T15:43:30.372Z,11.20
2022-12-23T15:46:30.107Z,11.10
2022-12-23T15:48:57.679Z,11.00
2022-12-23T15:52:05.948Z,11.00
2022-12-23T15:54:24.828Z,11.10
2022-12-23T15:56:53.982Z,11.10
2022-12-23T15:59:24.652Z,11.00
2022-12-23T16:01:52.152Z,10.90
2022-12-23T16:04:25.969Z,10.90
2022-12-23T16:06:53.563Z,10.90
2022-12-23T16:09:20.111Z,11.10
2022-12-23T16:12:02.001Z,11.20
2022-12-23T16:14:31.311Z,11.20
2022-12-23T16:17:13.517Z,11.20
2022-12-23T16:19:46.369Z,11.20
2022-12-23T16:22:28.086Z,11.10
2022-12-23T16:25:33.615Z,11.10
2022-12-23T16:28:06.994Z,11.10
2022-12-23T16:30:36.267Z,11.10
2022-12-23T16:33:06.910Z,11.30
2022-12-23T16:35:39.451Z,11.30
2022-12-23T16:38:26.602Z,11.40
2022-12-23T16:40:55.258Z,11.40
2022-12-23T16:43:24.174Z,11.40
2022-12-23T16:45:56.458Z,11.40
2022-12-23T16:48:36.707Z,11.40
2022-12-23T16:51:11.201Z,11.50
2022-12-23T16:53:38.322Z,11.50
2022-12-23T16:56:15.614Z,11.40
2022-12-23T16:58:43.206Z,11.40
2022-12-23T17:01:23.039Z,11.30
2022-12-23T17:03:50.509Z,11.20
2022-12-23T17:06:18.402Z,11.20
2022-12-23T17:08:45.043Z,11.20
2022-12-23T17:11:23.927Z,11.30
2022-12-23T17:13:50.666Z,11.30
2022-12-23T17:16:22.221Z,11.40
2022-12-23T17:18:50.282Z,11.40
2022-12-23T17:21:28.321Z,11.40
2022-12-23T17:24:02.565Z,11.40
2022-12-23T17:26:29.995Z,11.40
2022-12-23T17:28:56.604Z,11.30
2022-12-23T17:31:26.932Z,11.30
2022-12-23T17:33:54.398Z,11.30
2022-12-23T17:36:21.190Z,11.20
2022-12-23T17:38:48.121Z,11.20
2022-12-23T17:41:25.481Z,11.30
2022-12-23T17:43:52.269Z,11.30
2022-12-23T17:46:19.484Z,11.20
2022-12-23T17:48:47.016Z,11.20
2022-12-23T17:51:21.475Z,11.20
2022-12-23T17:53:55.142Z,11.20
2022-12-23T17:56:24.527Z,11.20
2022-12-23T17:58:51.723Z,11.20
2022-12-23T18:01:22.965Z,11.20
2022-12-23T18:03:50.051Z,11.30
2022-12-23T18:06:19.967Z,11.30
2022-12-23T18:08:47.077Z,11.40
2022-12-23T18:11:29.051Z,11.40
2022-12-23T18:13:55.644Z,11.40
2022-12-23T18:16:22.368Z,11.40
2022-12-23T18:18:49.085Z,11.50
2022-12-23T18:21:25.228Z,11.50
2022-12-23T18:23:53.964Z,11.50
2022-12-23T18:26:20.843Z,11.60
2022-12-23T18:28:47.472Z,11.60
2022-12-23T18:31:17.300Z,11.70
2022-12-23T18:33:44.340Z,11.80
2022-12-23T18:36:18.656Z,11.80
2022-12-23T18:38:45.299Z,11.80
2022-12-23T18:41:12.605Z,11.80
2022-12-23T18:43:39.277Z,11.60
2022-12-23T18:46:06.080Z,11.60
2022-12-23T18:48:32.744Z,11.60
2022-12-23T18:50:59.326Z,11.60
2022-12-23T18:53:25.970Z,11.50
2022-12-23T18:55:53.840Z,11.60
2022-12-23T18:58:21.196Z,11.60
2022-12-23T19:00:50.066Z,11.60
2022-12-23T19:03:22.924Z,11.60
2022-12-23T19:05:50.282Z,11.60
2022-12-23T19:08:23.556Z,11.60
2022-12-23T19:10:53.384Z,11.60
2022-12-23T19:13:20.396Z,11.60
2022-12-23T19:15:47.045Z,11.60
2022-12-23T19:18:19.327Z,11.60
2022-12-23T19:20:47.711Z,11.60
2022-12-23T19:23:15.556Z,11.60
2022-12-23T19:25:49.216Z,11.60
2022-12-23T19:28:21.497Z,11.60
2022-12-23T19:30:48.524Z,11.60
2022-12-23T19:33:15.264Z,11.50
2022-12-23T19:35:42.461Z,11.50
2022-12-23T19:38:09.188Z,11.50
2022-12-23T19:40:36.168Z,11.50
2022-12-23T19:43:03.231Z,11.50
2022-12-23T19:45:29.897Z,11.50
2022-12-23T19:47:56.559Z,11.50
2022-12-23T19:50:23.247Z,11.50
2022-12-23T19:52:54.599Z,11.50
2022-12-23T19:55:21.244Z,11.50
2022-12-23T19:57:47.861Z,11.40
2022-12-23T20:00:15.826Z,11.40
2022-12-23T20:02:42.605Z,11.40
2022-12-23T20:05:10.061Z,11.40
2022-12-23T20:07:36.723Z,11.40
2022-12-23T20:10:05.203Z,11.40
2022-12-23T20:12:31.987Z,11.40
2022-12-23T20:14:58.650Z,11.30
2022-12-23T20:17:25.290Z,11.40
2022-12-23T20:19:51.904Z,11.50
2022-12-23T20:22:18.513Z,11.40
2022-12-23T20:24:45.395Z,11.50
2022-12-23T20:27:14.793Z,11.50
2022-12-23T20:29:42.563Z,11.60
2022-12-23T20:32:09.175Z,11.50
2022-12-23T20:34:39.503Z,11.50
2022-12-23T20:37:07.466Z,11.50
2022-12-23T20:39:34.473Z,11.60
2022-12-23T20:42:01.169Z,11.60
2022-12-23T20:44:36.987Z,11.60
2022-12-23T20:47:06.072Z,11.60
2022-12-23T20:49:33.213Z,11.60
2022-12-23T20:51:59.980Z,11.60
2022-12-23T20:54:32.611Z,11.50
2022-12-23T20:57:00.769Z,11.60
2022-12-23T20:59:27.416Z,11.60
2022-12-23T21:01:54.653Z,11.50
2022-12-23T21:04:22.347Z,11.50
2022-12-23T21:06:48.972Z,11.50
2022-12-23T21:09:16.144Z,11.50
2022-12-23T21:11:45.038Z,11.50
2022-12-23T21:14:11.959Z,11.50
2022-12-23T21:16:39.199Z,11.50
2022-12-23T21:19:09.291Z,11.50
2022-12-23T21:21:35.932Z,11.50
2022-12-23T21:24:04.625Z,11.50
2022-12-23T21:26:32.952Z,11.50
2022-12-23T21:29:01.617Z,11.40
2022-12-23T21:31:30.379Z,11.40
2022-12-23T21:33:57.566Z,11.40
2022-12-23T21:36:27.152Z,11.40
2022-12-23T21:38:53.856Z,11.40
2022-12-23T21:41:23.190Z,11.40
2022-12-23T21:43:50.312Z,11.40
2022-12-23T21:46:19.323Z,11.40
2022-12-23T21:48:46.862Z,11.40
2022-12-23T21:51:16.480Z,11.40
2022-12-23T21:53:45.208Z,11.40
2022-12-23T21:56:16.900Z,11.40
2022-12-23T21:58:43.841Z,11.30
2022-12-23T22:01:13.281Z,11.40
2022-12-23T22:03:40.643Z,11.40
2022-12-23T22:06:10.622Z,11.40
2022-12-23T22:08:38.750Z,11.50
2022-12-23T22:11:13.960Z,11.30
2022-12-23T22:13:41.695Z,11.30
2022-12-23T22:16:10.665Z,11.30
2022-12-23T22:18:38.229Z,11.30
2022-12-23T22:21:13.541Z,11.20
2022-12-23T22:23:40.560Z,11.30
2022-12-23T22:26:08.542Z,11.20
2022-12-23T22:28:37.168Z,11.30
2022-12-23T22:31:15.338Z,11.30
2022-12-23T22:33:41.976Z,11.30
2022-12-23T22:36:11.780Z,11.20
2022-12-23T22:38:38.661Z,11.20
2022-12-23T22:41:05.811Z,11.20
2022-12-23T22:43:32.463Z,11.20
2022-12-23T22:46:01.114Z,11.10
2022-12-23T22:48:29.292Z,11.10
2022-12-23T22:51:03.968Z,11.10
2022-12-23T22:53:31.377Z,11.20
2022-12-23T22:56:01.185Z,11.20
2022-12-23T22:58:29.377Z,11.20
2022-12-23T23:00:57.234Z,11.20
2022-12-23T23:03:25.394Z,11.10
2022-12-23T23:06:04.652Z,11.10
2022-12-23T23:08:31.721Z,11.20
2022-12-23T23:11:01.335Z,11.20
2022-12-23T23:13:30.445Z,11.20
2022-12-23T23:15:57.753Z,11.20
2022-12-23T23:18:25.640Z,11.20
2022-12-23T23:20:52.542Z,11.10
2022-12-23T23:23:20.028Z,11.10
2022-12-23T23:25:46.894Z,11.20
2022-12-23T23:28:14.187Z,11.20
2022-12-23T23:30:41.081Z,11.10
2022-12-23T23:33:08.794Z,11.10
2022-12-23T23:35:35.750Z,11.10
2022-12-23T23:38:02.424Z,11.10
2022-12-23T23:40:29.036Z,11.00
2022-12-23T23:42:55.707Z,11.10
2022-12-23T23:45:22.389Z,11.00
2022-12-23T23:47:48.967Z,11.10
2022-12-23T23:50:15.567Z,11.10
2022-12-23T23:52:42.252Z,11.20
2022-12-23T23:55:09.322Z,11.10
2022-12-23T23:57:35.963Z,11.20
